DCS642 EDVE-LSZB
Flight info
| Callsign | DCS642 |
|---|---|
| Flight time | 1h 16m |
| Altitude | 37000 |
| Route | NORTA9T NORTA P605 ELNAT Z99 MASEK/N0343F360 DCT KRH T715 PABLA Y163 NATOR N850 TRA Z669 ROTOS |
| Aircraft | P180/L-SBDFGM3RWXY/LB1 |
Departure
| Time | 2026-04-25 15:49 |
|---|---|
| Airport | Braunschweig-Wolfsburg Airport (EDVE) |
Arrival
| Time | 2026-04-25 17:05 |
|---|---|
| Airport | Bern Airport (LSZB) |
| Time | Latitude | Longitude | Altitude | Speed | Heading |
|---|---|---|---|---|---|
| 2026-04-25 15:09 | 52.31558 | 10.55465 | 285 ft | 0 kts | 314° |
| 2026-04-25 15:41 | 52.31562 | 10.55458 | 285 ft | 2 kts | 314° |
| 2026-04-25 15:41 | 52.31566 | 10.55451 | 285 ft | 0 kts | 314° |
| 2026-04-25 15:41 | 52.31573 | 10.55455 | 285 ft | 3 kts | 47° |
| 2026-04-25 15:42 | 52.31574 | 10.55509 | 284 ft | 5 kts | 89° |
| 2026-04-25 15:42 | 52.31589 | 10.55563 | 284 ft | 8 kts | 41° |
| 2026-04-25 15:42 | 52.31645 | 10.55628 | 285 ft | 12 kts | 37° |
| 2026-04-25 15:42 | 52.31714 | 10.55751 | 284 ft | 18 kts | 74° |
| 2026-04-25 15:43 | 52.31729 | 10.55978 | 286 ft | 22 kts | 83° |
| 2026-04-25 15:43 | 52.31743 | 10.56233 | 288 ft | 21 kts | 85° |
| 2026-04-25 15:43 | 52.31762 | 10.56388 | 291 ft | 10 kts | 47° |
| 2026-04-25 15:43 | 52.31813 | 10.56469 | 293 ft | 13 kts | 82° |
| 2026-04-25 15:44 | 52.31819 | 10.56634 | 292 ft | 16 kts | 85° |
| 2026-04-25 15:44 | 52.31830 | 10.56825 | 294 ft | 18 kts | 85° |
| 2026-04-25 15:44 | 52.31843 | 10.57058 | 292 ft | 22 kts | 85° |
| 2026-04-25 15:44 | 52.31854 | 10.57267 | 295 ft | 13 kts | 84° |
| 2026-04-25 15:45 | 52.31869 | 10.57431 | 297 ft | 16 kts | 60° |
| 2026-04-25 15:45 | 52.31951 | 10.57546 | 302 ft | 14 kts | 34° |
| 2026-04-25 15:45 | 52.32013 | 10.57545 | 303 ft | 6 kts | 330° |
| 2026-04-25 15:45 | 52.32025 | 10.57528 | 304 ft | 7 kts | 310° |
| 2026-04-25 15:46 | 52.32025 | 10.57476 | 301 ft | 0 kts | 263° |
| 2026-04-25 15:48 | 52.32025 | 10.57475 | 301 ft | 0 kts | 263° |
| 2026-04-25 15:48 | 52.32024 | 10.57460 | 299 ft | 17 kts | 263° |
| 2026-04-25 15:48 | 52.31986 | 10.56789 | 288 ft | 92 kts | 264° |
| 2026-04-25 15:49 | 52.31923 | 10.55685 | 727 ft | 102 kts | 266° |
| 2026-04-25 15:49 | 52.31855 | 10.54446 | 1200 ft | 116 kts | 268° |
| 2026-04-25 15:49 | 52.31778 | 10.53078 | 1691 ft | 127 kts | 268° |
| 2026-04-25 15:49 | 52.31698 | 10.51592 | 2101 ft | 135 kts | 268° |
| 2026-04-25 15:50 | 52.31636 | 10.50570 | 2376 ft | 138 kts | 268° |
| 2026-04-25 15:50 | 52.31513 | 10.48304 | 3192 ft | 153 kts | 268° |
| 2026-04-25 15:50 | 52.31409 | 10.46581 | 4073 ft | 153 kts | 270° |
| 2026-04-25 15:50 | 52.31315 | 10.44893 | 5063 ft | 143 kts | 272° |
| 2026-04-25 15:51 | 52.31219 | 10.43277 | 5861 ft | 144 kts | 272° |
| 2026-04-25 15:51 | 52.31191 | 10.42744 | 6100 ft | 146 kts | 272° |
| 2026-04-25 15:51 | 52.31030 | 10.39928 | 7321 ft | 149 kts | 272° |
| 2026-04-25 15:51 | 52.30936 | 10.38239 | 8017 ft | 151 kts | 272° |
| 2026-04-25 15:52 | 52.30828 | 10.36515 | 8645 ft | 156 kts | 269° |
| 2026-04-25 15:52 | 52.30366 | 10.34848 | 9271 ft | 174 kts | 243° |
| 2026-04-25 15:52 | 52.29574 | 10.33283 | 9924 ft | 179 kts | 238° |
| 2026-04-25 15:52 | 52.28565 | 10.31980 | 10503 ft | 188 kts | 226° |
| 2026-04-25 15:53 | 52.27853 | 10.31139 | 10891 ft | 188 kts | 228° |
| 2026-04-25 15:53 | 52.27254 | 10.30397 | 11238 ft | 188 kts | 229° |
| 2026-04-25 15:53 | 52.26209 | 10.29095 | 11786 ft | 190 kts | 229° |
| 2026-04-25 15:53 | 52.25154 | 10.27785 | 12338 ft | 191 kts | 229° |
| 2026-04-25 15:54 | 52.24088 | 10.26473 | 12876 ft | 192 kts | 229° |
| 2026-04-25 15:54 | 52.23020 | 10.25153 | 13421 ft | 193 kts | 229° |
| 2026-04-25 15:54 | 52.21943 | 10.23824 | 13921 ft | 195 kts | 229° |
| 2026-04-25 15:54 | 52.20860 | 10.22486 | 14370 ft | 196 kts | 229° |
| 2026-04-25 15:55 | 52.19768 | 10.21145 | 14816 ft | 197 kts | 229° |
| 2026-04-25 15:55 | 52.18685 | 10.19810 | 15245 ft | 198 kts | 229° |
| 2026-04-25 15:55 | 52.17581 | 10.18451 | 15673 ft | 200 kts | 229° |
| 2026-04-25 15:55 | 52.16469 | 10.17084 | 16089 ft | 201 kts | 229° |
| 2026-04-25 15:56 | 52.15353 | 10.15709 | 16498 ft | 202 kts | 229° |
| 2026-04-25 15:56 | 52.14225 | 10.14327 | 16903 ft | 203 kts | 229° |
| 2026-04-25 15:56 | 52.13096 | 10.12938 | 17306 ft | 205 kts | 229° |
| 2026-04-25 15:56 | 52.11955 | 10.11542 | 17677 ft | 206 kts | 229° |
| 2026-04-25 15:57 | 52.10807 | 10.10137 | 18028 ft | 207 kts | 229° |
| 2026-04-25 15:57 | 52.09639 | 10.08751 | 18228 ft | 208 kts | 229° |
| 2026-04-25 15:57 | 52.08496 | 10.07350 | 18390 ft | 209 kts | 229° |
| 2026-04-25 15:57 | 52.07324 | 10.05909 | 18562 ft | 211 kts | 229° |
| 2026-04-25 15:58 | 52.06157 | 10.04456 | 18804 ft | 211 kts | 230° |
| 2026-04-25 15:58 | 52.04990 | 10.02998 | 19088 ft | 213 kts | 229° |
| 2026-04-25 15:58 | 52.03801 | 10.01558 | 19354 ft | 214 kts | 228° |
| 2026-04-25 15:58 | 52.02619 | 10.00123 | 19625 ft | 215 kts | 229° |
| 2026-04-25 15:59 | 52.01420 | 9.98662 | 19892 ft | 216 kts | 228° |
| 2026-04-25 15:59 | 52.00213 | 9.97192 | 20167 ft | 217 kts | 228° |
| 2026-04-25 15:59 | 51.99001 | 9.95716 | 20428 ft | 218 kts | 227° |
| 2026-04-25 15:59 | 51.97767 | 9.94259 | 20566 ft | 220 kts | 227° |
| 2026-04-25 16:00 | 51.96542 | 9.92762 | 20747 ft | 221 kts | 229° |
| 2026-04-25 16:00 | 51.96151 | 9.92267 | 20846 ft | 220 kts | 229° |
| 2026-04-25 16:00 | 51.94093 | 9.89736 | 21299 ft | 223 kts | 227° |
| 2026-04-25 16:00 | 51.92860 | 9.88261 | 21549 ft | 223 kts | 227° |
| 2026-04-25 16:01 | 51.91610 | 9.86746 | 21797 ft | 225 kts | 228° |
| 2026-04-25 16:01 | 51.90358 | 9.85219 | 22078 ft | 226 kts | 228° |
| 2026-04-25 16:01 | 51.89095 | 9.83690 | 22338 ft | 228 kts | 227° |
| 2026-04-25 16:01 | 51.87820 | 9.82148 | 22592 ft | 229 kts | 227° |
| 2026-04-25 16:02 | 51.86382 | 9.80925 | 22849 ft | 247 kts | 203° |
| 2026-04-25 16:02 | 51.84645 | 9.80542 | 23214 ft | 254 kts | 194° |
| 2026-04-25 16:02 | 51.82887 | 9.80218 | 23617 ft | 255 kts | 195° |
| 2026-04-25 16:02 | 51.81120 | 9.79878 | 23951 ft | 257 kts | 195° |
| 2026-04-25 16:03 | 51.79366 | 9.79543 | 24292 ft | 258 kts | 195° |
| 2026-04-25 16:03 | 51.77574 | 9.79201 | 24675 ft | 260 kts | 195° |
| 2026-04-25 16:03 | 51.75774 | 9.78861 | 25069 ft | 262 kts | 195° |
| 2026-04-25 16:03 | 51.73960 | 9.78513 | 25466 ft | 264 kts | 195° |
| 2026-04-25 16:04 | 51.72134 | 9.78164 | 25860 ft | 265 kts | 195° |
| 2026-04-25 16:04 | 51.70293 | 9.77810 | 26254 ft | 268 kts | 195° |
| 2026-04-25 16:04 | 51.68434 | 9.77463 | 26647 ft | 270 kts | 195° |
| 2026-04-25 16:04 | 51.66560 | 9.77111 | 27065 ft | 271 kts | 195° |
| 2026-04-25 16:05 | 51.64704 | 9.76754 | 27482 ft | 274 kts | 195° |
| 2026-04-25 16:05 | 51.62806 | 9.76394 | 27890 ft | 275 kts | 195° |
| 2026-04-25 16:05 | 51.58995 | 9.75675 | 28800 ft | 276 kts | 195° |
| 2026-04-25 16:06 | 51.57081 | 9.75311 | 29265 ft | 276 kts | 195° |
| 2026-04-25 16:06 | 51.55174 | 9.74955 | 29781 ft | 276 kts | 195° |
| 2026-04-25 16:06 | 51.53270 | 9.74596 | 30270 ft | 275 kts | 195° |
| 2026-04-25 16:06 | 51.51366 | 9.74232 | 30709 ft | 275 kts | 195° |
| 2026-04-25 16:07 | 51.49466 | 9.73879 | 31126 ft | 275 kts | 195° |
| 2026-04-25 16:07 | 51.48850 | 9.73764 | 31260 ft | 275 kts | 195° |
| 2026-04-25 16:07 | 51.45700 | 9.73176 | 31943 ft | 274 kts | 195° |
| 2026-04-25 16:07 | 51.43799 | 9.72882 | 32345 ft | 275 kts | 194° |
| 2026-04-25 16:08 | 51.41900 | 9.72588 | 32741 ft | 274 kts | 194° |
| 2026-04-25 16:08 | 51.40007 | 9.72274 | 33106 ft | 273 kts | 194° |
| 2026-04-25 16:08 | 51.38119 | 9.71965 | 33499 ft | 272 kts | 194° |
| 2026-04-25 16:08 | 51.36238 | 9.71661 | 33889 ft | 271 kts | 194° |
| 2026-04-25 16:09 | 51.34358 | 9.71355 | 34236 ft | 271 kts | 194° |
| 2026-04-25 16:09 | 51.33120 | 9.71153 | 34450 ft | 271 kts | 194° |
| 2026-04-25 16:09 | 51.30643 | 9.70750 | 34862 ft | 269 kts | 194° |
| 2026-04-25 16:09 | 51.28785 | 9.70452 | 35182 ft | 268 kts | 194° |
| 2026-04-25 16:10 | 51.26929 | 9.70150 | 35495 ft | 267 kts | 194° |
| 2026-04-25 16:10 | 51.25082 | 9.69851 | 35796 ft | 266 kts | 194° |
| 2026-04-25 16:10 | 51.23862 | 9.69656 | 35997 ft | 266 kts | 194° |
| 2026-04-25 16:10 | 51.22024 | 9.69357 | 36291 ft | 265 kts | 194° |
| 2026-04-25 16:11 | 51.20193 | 9.69057 | 36578 ft | 264 kts | 196° |
| 2026-04-25 16:11 | 51.18380 | 9.68684 | 36864 ft | 262 kts | 196° |
| 2026-04-25 16:11 | 51.16566 | 9.68330 | 37061 ft | 265 kts | 195° |
| 2026-04-25 16:11 | 51.14090 | 9.67841 | 37075 ft | 277 kts | 195° |
| 2026-04-25 16:12 | 51.12143 | 9.67457 | 37083 ft | 287 kts | 194° |
| 2026-04-25 16:12 | 51.10127 | 9.67062 | 37079 ft | 296 kts | 194° |
| 2026-04-25 16:12 | 51.08759 | 9.66794 | 37094 ft | 302 kts | 194° |
| 2026-04-25 16:13 | 51.04465 | 9.65955 | 37085 ft | 320 kts | 194° |
| 2026-04-25 16:13 | 50.99924 | 9.65068 | 37081 ft | 337 kts | 193° |
| 2026-04-25 16:14 | 50.95163 | 9.64141 | 37081 ft | 352 kts | 193° |
| 2026-04-25 16:14 | 50.90252 | 9.63187 | 37084 ft | 363 kts | 193° |
| 2026-04-25 16:15 | 50.85162 | 9.62198 | 37083 ft | 373 kts | 192° |
| 2026-04-25 16:15 | 50.79946 | 9.61190 | 37080 ft | 381 kts | 192° |
| 2026-04-25 16:16 | 50.74635 | 9.60154 | 37077 ft | 387 kts | 193° |
| 2026-04-25 16:16 | 50.69528 | 9.57774 | 37075 ft | 382 kts | 207° |
| 2026-04-25 16:17 | 50.64573 | 9.54777 | 37078 ft | 385 kts | 206° |
| 2026-04-25 16:17 | 50.59556 | 9.51748 | 37076 ft | 387 kts | 207° |
| 2026-04-25 16:18 | 50.54509 | 9.48712 | 37078 ft | 389 kts | 206° |
| 2026-04-25 16:18 | 50.49459 | 9.45664 | 37078 ft | 389 kts | 207° |
| 2026-04-25 16:19 | 50.44389 | 9.42630 | 37066 ft | 391 kts | 206° |
| 2026-04-25 16:19 | 50.39305 | 9.39582 | 37067 ft | 392 kts | 206° |
| 2026-04-25 16:20 | 50.31685 | 9.35036 | 37070 ft | 393 kts | 206° |
| 2026-04-25 16:21 | 50.24029 | 9.30481 | 37066 ft | 393 kts | 206° |
| 2026-04-25 16:21 | 50.18918 | 9.27451 | 37070 ft | 393 kts | 206° |
| 2026-04-25 16:22 | 50.13799 | 9.24422 | 37073 ft | 394 kts | 206° |
| 2026-04-25 16:22 | 50.08715 | 9.21419 | 37075 ft | 393 kts | 206° |
| 2026-04-25 16:23 | 50.03598 | 9.18405 | 37071 ft | 393 kts | 205° |
| 2026-04-25 16:23 | 49.98482 | 9.15398 | 37070 ft | 393 kts | 205° |
| 2026-04-25 16:24 | 49.93373 | 9.12405 | 37077 ft | 393 kts | 205° |
| 2026-04-25 16:24 | 49.88298 | 9.09434 | 37073 ft | 392 kts | 205° |
| 2026-04-25 16:25 | 49.83189 | 9.06454 | 37076 ft | 392 kts | 205° |
| 2026-04-25 16:25 | 49.78092 | 9.03480 | 37083 ft | 392 kts | 205° |
| 2026-04-25 16:26 | 49.72991 | 9.00522 | 37086 ft | 392 kts | 205° |
| 2026-04-25 16:26 | 49.67882 | 8.97555 | 37080 ft | 392 kts | 205° |
| 2026-04-25 16:27 | 49.62821 | 8.94629 | 37085 ft | 391 kts | 205° |
| 2026-04-25 16:27 | 49.57725 | 8.91690 | 37098 ft | 391 kts | 205° |
| 2026-04-25 16:28 | 49.52626 | 8.88751 | 37086 ft | 391 kts | 205° |
| 2026-04-25 16:28 | 49.47529 | 8.85824 | 37100 ft | 391 kts | 205° |
| 2026-04-25 16:29 | 49.42434 | 8.82901 | 37088 ft | 391 kts | 205° |
| 2026-04-25 16:29 | 49.37370 | 8.80005 | 37087 ft | 391 kts | 205° |
| 2026-04-25 16:30 | 49.32275 | 8.77098 | 37089 ft | 391 kts | 204° |
| 2026-04-25 16:30 | 49.27182 | 8.74194 | 37090 ft | 391 kts | 204° |
| 2026-04-25 16:31 | 49.22087 | 8.71299 | 37082 ft | 391 kts | 204° |
| 2026-04-25 16:31 | 49.16990 | 8.68410 | 37080 ft | 390 kts | 204° |
| 2026-04-25 16:32 | 49.11931 | 8.65544 | 37075 ft | 391 kts | 204° |
| 2026-04-25 16:32 | 49.06835 | 8.62672 | 37072 ft | 391 kts | 204° |
| 2026-04-25 16:33 | 49.01734 | 8.59795 | 37075 ft | 391 kts | 204° |
| 2026-04-25 16:33 | 48.97039 | 8.55861 | 37075 ft | 383 kts | 220° |
| 2026-04-25 16:34 | 48.92782 | 8.50988 | 37081 ft | 383 kts | 220° |
| 2026-04-25 16:34 | 48.88325 | 8.45931 | 37082 ft | 383 kts | 221° |
| 2026-04-25 16:35 | 48.84274 | 8.41327 | 37078 ft | 383 kts | 220° |
| 2026-04-25 16:35 | 48.79904 | 8.36676 | 37073 ft | 387 kts | 213° |
| 2026-04-25 16:36 | 48.74854 | 8.33721 | 37072 ft | 394 kts | 197° |
| 2026-04-25 16:36 | 48.69525 | 8.31794 | 37073 ft | 393 kts | 197° |
| 2026-04-25 16:37 | 48.64238 | 8.29854 | 37077 ft | 394 kts | 197° |
| 2026-04-25 16:37 | 48.58907 | 8.27925 | 37078 ft | 394 kts | 197° |
| 2026-04-25 16:38 | 48.53573 | 8.25987 | 37083 ft | 394 kts | 197° |
| 2026-04-25 16:38 | 48.48127 | 8.24903 | 37082 ft | 399 kts | 182° |
| 2026-04-25 16:39 | 48.42590 | 8.25953 | 37085 ft | 402 kts | 173° |
| 2026-04-25 16:39 | 48.37096 | 8.27268 | 37086 ft | 402 kts | 173° |
| 2026-04-25 16:40 | 48.31576 | 8.28613 | 37083 ft | 402 kts | 173° |
| 2026-04-25 16:40 | 48.26060 | 8.29941 | 37088 ft | 402 kts | 173° |
| 2026-04-25 16:41 | 48.20542 | 8.31275 | 37087 ft | 402 kts | 173° |
| 2026-04-25 16:41 | 48.12266 | 8.33275 | 37091 ft | 401 kts | 173° |
| 2026-04-25 16:42 | 48.06790 | 8.34606 | 37095 ft | 402 kts | 173° |
| 2026-04-25 16:42 | 48.01278 | 8.35941 | 37017 ft | 402 kts | 173° |
| 2026-04-25 16:43 | 47.98506 | 8.36611 | 36535 ft | 406 kts | 173° |
| 2026-04-25 16:43 | 47.95702 | 8.37288 | 36001 ft | 410 kts | 173° |
| 2026-04-25 16:43 | 47.92871 | 8.37969 | 35457 ft | 415 kts | 173° |
| 2026-04-25 16:43 | 47.90015 | 8.38659 | 34903 ft | 414 kts | 173° |
| 2026-04-25 16:44 | 47.87228 | 8.39334 | 34374 ft | 410 kts | 173° |
| 2026-04-25 16:44 | 47.84420 | 8.40006 | 33801 ft | 407 kts | 173° |
| 2026-04-25 16:44 | 47.81631 | 8.40671 | 33251 ft | 405 kts | 173° |
| 2026-04-25 16:44 | 47.78855 | 8.41285 | 32719 ft | 402 kts | 176° |
| 2026-04-25 16:45 | 47.76068 | 8.41410 | 32187 ft | 401 kts | 184° |
| 2026-04-25 16:45 | 47.73289 | 8.41045 | 31659 ft | 400 kts | 192° |
| 2026-04-25 16:45 | 47.70569 | 8.40189 | 31121 ft | 400 kts | 199° |
| 2026-04-25 16:45 | 47.67947 | 8.38854 | 30606 ft | 398 kts | 206° |
| 2026-04-25 16:46 | 47.65458 | 8.37066 | 30058 ft | 397 kts | 213° |
| 2026-04-25 16:46 | 47.63144 | 8.34867 | 29508 ft | 394 kts | 220° |
| 2026-04-25 16:46 | 47.61037 | 8.32297 | 28987 ft | 390 kts | 227° |
| 2026-04-25 16:46 | 47.59756 | 8.30438 | 28647 ft | 390 kts | 230° |
| 2026-04-25 16:47 | 47.57184 | 8.26721 | 27963 ft | 391 kts | 229° |
| 2026-04-25 16:47 | 47.55204 | 8.23949 | 27455 ft | 391 kts | 229° |
| 2026-04-25 16:47 | 47.53253 | 8.21145 | 26951 ft | 391 kts | 230° |
| 2026-04-25 16:47 | 47.51316 | 8.18319 | 26434 ft | 392 kts | 230° |
| 2026-04-25 16:48 | 47.49355 | 8.15523 | 25909 ft | 392 kts | 229° |
| 2026-04-25 16:48 | 47.47377 | 8.12749 | 25398 ft | 391 kts | 229° |
| 2026-04-25 16:48 | 47.45427 | 8.09951 | 24882 ft | 391 kts | 230° |
| 2026-04-25 16:48 | 47.43486 | 8.07147 | 24369 ft | 391 kts | 229° |
| 2026-04-25 16:49 | 47.41522 | 8.04373 | 23846 ft | 390 kts | 229° |
| 2026-04-25 16:49 | 47.39565 | 8.01614 | 23291 ft | 388 kts | 229° |
| 2026-04-25 16:49 | 47.37639 | 7.98855 | 22779 ft | 384 kts | 229° |
| 2026-04-25 16:49 | 47.35729 | 7.96132 | 22269 ft | 380 kts | 229° |
| 2026-04-25 16:50 | 47.33852 | 7.93497 | 21777 ft | 376 kts | 229° |
| 2026-04-25 16:50 | 47.31971 | 7.90841 | 21276 ft | 372 kts | 229° |
| 2026-04-25 16:50 | 47.30121 | 7.88204 | 20796 ft | 368 kts | 229° |
| 2026-04-25 16:50 | 47.28283 | 7.85593 | 20312 ft | 366 kts | 228° |
| 2026-04-25 16:51 | 47.26448 | 7.83025 | 19828 ft | 363 kts | 227° |
| 2026-04-25 16:51 | 47.24662 | 7.80511 | 19361 ft | 360 kts | 227° |
| 2026-04-25 16:51 | 47.22867 | 7.77967 | 18885 ft | 357 kts | 227° |
| 2026-04-25 16:51 | 47.21683 | 7.76298 | 18578 ft | 355 kts | 227° |
| 2026-04-25 16:52 | 47.19337 | 7.72988 | 17921 ft | 350 kts | 229° |
| 2026-04-25 16:52 | 47.18000 | 7.70092 | 17457 ft | 339 kts | 246° |
| 2026-04-25 16:52 | 47.16905 | 7.67045 | 17021 ft | 336 kts | 243° |
| 2026-04-25 16:52 | 47.15444 | 7.63744 | 16517 ft | 334 kts | 239° |
| 2026-04-25 16:53 | 47.13295 | 7.58360 | 15719 ft | 327 kts | 244° |
| 2026-04-25 16:53 | 47.12319 | 7.55382 | 15284 ft | 320 kts | 254° |
| 2026-04-25 16:53 | 47.11869 | 7.52225 | 14872 ft | 313 kts | 262° |
| 2026-04-25 16:54 | 47.11408 | 7.49121 | 14476 ft | 310 kts | 258° |
| 2026-04-25 16:54 | 47.10853 | 7.46090 | 14070 ft | 305 kts | 257° |
| 2026-04-25 16:54 | 47.10372 | 7.43121 | 13656 ft | 301 kts | 260° |
| 2026-04-25 16:54 | 47.09950 | 7.40144 | 13245 ft | 295 kts | 260° |
| 2026-04-25 16:55 | 47.09356 | 7.37334 | 12857 ft | 284 kts | 243° |
| 2026-04-25 16:55 | 47.08046 | 7.35228 | 12487 ft | 277 kts | 220° |
| 2026-04-25 16:55 | 47.06343 | 7.34017 | 12124 ft | 273 kts | 193° |
| 2026-04-25 16:55 | 47.04473 | 7.34192 | 11772 ft | 271 kts | 164° |
| 2026-04-25 16:56 | 47.02882 | 7.35611 | 11429 ft | 268 kts | 141° |
| 2026-04-25 16:56 | 47.01459 | 7.37279 | 11088 ft | 263 kts | 151° |
| 2026-04-25 16:56 | 46.99711 | 7.37984 | 10737 ft | 256 kts | 175° |
| 2026-04-25 16:56 | 46.97961 | 7.38355 | 10407 ft | 253 kts | 173° |
| 2026-04-25 16:57 | 46.96259 | 7.38783 | 10083 ft | 250 kts | 173° |
| 2026-04-25 16:57 | 46.95104 | 7.39049 | 9844 ft | 247 kts | 174° |
| 2026-04-25 16:57 | 46.92870 | 7.39526 | 9395 ft | 242 kts | 173° |
| 2026-04-25 16:57 | 46.91217 | 7.39909 | 9077 ft | 239 kts | 173° |
| 2026-04-25 16:58 | 46.89579 | 7.40271 | 8762 ft | 237 kts | 172° |
| 2026-04-25 16:58 | 46.87950 | 7.40640 | 8449 ft | 236 kts | 172° |
| 2026-04-25 16:58 | 46.86331 | 7.41010 | 8137 ft | 236 kts | 172° |
| 2026-04-25 16:58 | 46.84808 | 7.41855 | 7810 ft | 239 kts | 143° |
| 2026-04-25 16:59 | 46.83551 | 7.43466 | 7460 ft | 240 kts | 139° |
| 2026-04-25 16:59 | 46.82275 | 7.45040 | 7144 ft | 240 kts | 141° |
| 2026-04-25 16:59 | 46.80981 | 7.46587 | 6829 ft | 240 kts | 140° |
| 2026-04-25 16:59 | 46.79695 | 7.48153 | 6506 ft | 241 kts | 140° |
| 2026-04-25 17:00 | 46.78409 | 7.49730 | 6172 ft | 241 kts | 140° |
| 2026-04-25 17:00 | 46.77296 | 7.51492 | 6020 ft | 231 kts | 121° |
| 2026-04-25 17:00 | 46.76564 | 7.53463 | 6013 ft | 219 kts | 117° |
| 2026-04-25 17:00 | 46.75817 | 7.55385 | 6010 ft | 217 kts | 120° |
| 2026-04-25 17:01 | 46.75069 | 7.57299 | 6008 ft | 217 kts | 114° |
| 2026-04-25 17:01 | 46.74909 | 7.59434 | 6006 ft | 216 kts | 76° |
| 2026-04-25 17:01 | 46.75411 | 7.61491 | 6010 ft | 216 kts | 65° |
| 2026-04-25 17:01 | 46.76308 | 7.63190 | 6008 ft | 214 kts | 32° |
| 2026-04-25 17:02 | 46.77682 | 7.64087 | 5855 ft | 221 kts | 19° |
| 2026-04-25 17:02 | 46.79223 | 7.64284 | 5497 ft | 230 kts | 346° |
| 2026-04-25 17:02 | 46.80580 | 7.63105 | 5111 ft | 234 kts | 319° |
| 2026-04-25 17:02 | 46.81365 | 7.62016 | 4850 ft | 227 kts | 317° |
| 2026-04-25 17:03 | 46.82901 | 7.60052 | 4333 ft | 217 kts | 321° |
| 2026-04-25 17:03 | 46.84051 | 7.58695 | 3960 ft | 208 kts | 320° |
| 2026-04-25 17:03 | 46.85145 | 7.57356 | 3598 ft | 202 kts | 319° |
| 2026-04-25 17:03 | 46.86210 | 7.56067 | 3240 ft | 195 kts | 319° |
| 2026-04-25 17:04 | 46.87201 | 7.54851 | 2910 ft | 172 kts | 318° |
| 2026-04-25 17:04 | 46.88017 | 7.53840 | 2625 ft | 140 kts | 320° |
| 2026-04-25 17:04 | 46.88734 | 7.52987 | 2381 ft | 129 kts | 321° |
| 2026-04-25 17:04 | 46.89404 | 7.52149 | 2141 ft | 125 kts | 321° |
| 2026-04-25 17:05 | 46.90058 | 7.51369 | 1889 ft | 122 kts | 324° |
| 2026-04-25 17:05 | 46.91267 | 7.49892 | 1682 ft | 83 kts | 320° |
| 2026-04-25 17:05 | 46.91533 | 7.49569 | 1679 ft | 32 kts | 320° |
| 2026-04-25 17:06 | 46.91651 | 7.49437 | 1678 ft | 17 kts | 322° |
| 2026-04-25 17:06 | 46.91656 | 7.49408 | 1684 ft | 5 kts | 163° |
| 2026-04-25 17:06 | 46.91625 | 7.49455 | 1685 ft | 8 kts | 131° |
| 2026-04-25 17:06 | 46.91575 | 7.49527 | 1677 ft | 12 kts | 140° |
| 2026-04-25 17:07 | 46.91508 | 7.49607 | 1674 ft | 5 kts | 140° |
| 2026-04-25 17:07 | 46.91501 | 7.49642 | 1674 ft | 6 kts | 65° |
| 2026-04-25 17:07 | 46.91527 | 7.49691 | 1680 ft | 0 kts | 53° |
| 2026-04-25 17:08 | 46.91528 | 7.49693 | 1680 ft | 1 kts | 54° |
| 2026-04-25 17:08 | 46.91526 | 7.49725 | 1675 ft | 6 kts | 126° |
| 2026-04-25 17:08 | 46.91488 | 7.49774 | 1675 ft | 10 kts | 139° |
| 2026-04-25 17:08 | 46.91426 | 7.49847 | 1680 ft | 12 kts | 140° |
| 2026-04-25 17:09 | 46.91367 | 7.49913 | 1675 ft | 0 kts | 140° |
| 2026-04-25 17:09 | 46.91361 | 7.49920 | 1675 ft | 3 kts | 139° |
| 2026-04-25 17:09 | 46.91355 | 7.49954 | 1678 ft | 5 kts | 64° |
| 2026-04-25 17:09 | 46.91351 | 7.49984 | 1675 ft | 0 kts | 140° |
| 2026-04-25 17:12 | 46.91351 | 7.49995 | 1675 ft | 0 kts | 112° |